Time;durP1;ratioP1;P1;durP2;ratioP2;P2;SDS_P1;SDS_P2;PMS_P1;PMS_P2;Temp;Humidity;BMP_temperature;BMP_pressure;BME280_temperature;BME280_humidity;BME280_pressure;Samples;Min_cycle;Max_cycle;Signal;HPM_P1;HPM_P2
2023/09/13 00:02:06;;;;;;;37.67;21.33;;;;;;;19.95;71.72;99909.63;4226597;28;20318;-72
2023/09/13 00:04:33;;;;;;;29.53;19.50;;;;;;;19.75;72.51;99901.50;4237993;28;23855;-70
2023/09/13 00:07:00;;;;;;;45.37;20.17;;;;;;;19.64;73.34;99898.41;4228055;28;20237;-69
2023/09/13 00:09:26;;;;;;;36.10;23.90;;;;;;;19.69;73.62;99903.22;4224018;28;20237;-70
2023/09/13 00:11:53;;;;;;;34.03;22.57;;;;;;;19.77;73.00;99907.59;4223258;28;20233;-70
2023/09/13 00:14:19;;;;;;;41.30;23.20;;;;;;;19.73;73.17;99896.22;4214565;28;20232;-69
2023/09/13 00:16:46;;;;;;;42.40;24.67;;;;;;;19.93;71.85;99892.53;4223549;28;20414;-71
2023/09/13 00:19:13;;;;;;;36.47;22.87;;;;;;;19.95;71.63;99894.00;4221629;28;22309;-69
2023/09/13 00:21:42;;;;;;;36.47;22.93;;;;;;;19.92;71.40;99883.44;4225768;28;20286;-71
2023/09/13 00:24:10;;;;;;;31.73;19.53;;;;;;;19.73;72.14;99887.97;4211227;28;20405;-71
2023/09/13 00:26:36;;;;;;;38.80;22.13;;;;;;;19.59;73.29;99890.00;4235516;28;20273;-73
2023/09/13 00:29:03;;;;;;;31.87;20.77;;;;;;;19.49;73.85;99884.13;4226009;28;20239;-72
2023/09/13 00:31:30;;;;;;;36.80;22.60;;;;;;;19.50;73.97;99888.56;4219193;28;20235;-73
2023/09/13 00:33:57;;;;;;;37.10;24.83;;;;;;;19.78;72.42;99888.19;4222954;28;20500;-71
2023/09/13 00:36:23;;;;;;;38.23;25.33;;;;;;;19.92;71.43;99890.84;4230020;28;21060;-72
2023/09/13 00:38:50;;;;;;;39.33;22.63;;;;;;;19.89;71.55;99885.78;4213440;28;20237;-72
2023/09/13 00:41:16;;;;;;;33.50;22.20;;;;;;;19.78;71.76;99887.31;4218714;28;20251;-71
2023/09/13 00:43:43;;;;;;;34.77;23.50;;;;;;;19.73;72.23;99885.25;4209867;28;21777;-71
2023/09/13 00:46:11;;;;;;;43.87;24.37;;;;;;;19.75;72.20;99880.38;4234488;28;20247;-73
2023/09/13 00:48:38;;;;;;;32.63;22.13;;;;;;;19.69;72.51;99883.16;4236543;28;23923;-70
2023/09/13 00:51:05;;;;;;;36.03;24.57;;;;;;;19.70;72.31;99879.34;4217565;28;20307;-71
2023/09/13 00:53:32;;;;;;;40.33;24.83;;;;;;;19.75;72.01;99876.81;4226634;28;20714;-75
2023/09/13 00:55:59;;;;;;;35.53;21.40;;;;;;;19.71;71.81;99878.28;4214396;28;21771;-72
2023/09/13 00:58:26;;;;;;;35.50;22.37;;;;;;;19.57;72.50;99881.13;4228518;28;20238;-71
2023/09/13 01:00:53;;;;;;;28.30;19.80;;;;;;;19.42;73.14;99883.31;4233937;28;20317;-71
2023/09/13 01:03:22;;;;;;;33.97;20.53;;;;;;;19.35;73.57;99890.75;4226551;28;20556;-71
2023/09/13 01:05:54;;;;;;;33.53;21.67;;;;;;;19.30;73.78;99877.69;4205875;28;20315;-71
2023/09/13 01:08:21;;;;;;;30.80;21.10;;;;;;;19.20;74.29;99878.16;4239999;28;21157;-72
2023/09/13 01:10:48;;;;;;;36.00;22.87;;;;;;;19.11;74.78;99885.78;4224480;28;21463;-72
2023/09/13 01:13:15;;;;;;;28.23;20.13;;;;;;;19.03;75.28;99882.44;4219092;28;22211;-72
2023/09/13 01:16:00;;;;;;;36.27;22.83;;;;;;;18.94;75.82;99881.84;4230196;28;20240;-72
2023/09/13 01:18:38;;;;;;;33.87;22.47;;;;;;;18.90;76.24;99881.41;4226014;28;23462;-71
2023/09/13 01:21:18;;;;;;;33.13;23.57;;;;;;;18.80;76.45;99881.00;4217352;28;25239;-71
2023/09/13 01:24:04;;;;;;;41.17;24.97;;;;;;;18.81;76.56;99885.44;4213882;28;21553;-71
2023/09/13 01:26:58;;;;;;;34.07;21.70;;;;;;;18.79;76.96;99884.81;4216367;28;20300;-73
2023/09/13 01:29:25;;;;;;;33.10;22.10;;;;;;;18.72;77.21;99889.47;4223725;28;20314;-71
2023/09/13 01:31:53;;;;;;;36.77;22.40;;;;;;;18.66;77.53;99880.19;4214927;28;20239;-71
2023/09/13 01:34:19;;;;;;;40.03;25.83;;;;;;;18.61;78.16;99886.34;4217070;28;20255;-72
2023/09/13 01:36:46;;;;;;;32.77;23.07;;;;;;;18.60;78.20;99886.53;4213126;28;20231;-71
2023/09/13 01:39:13;;;;;;;39.80;25.93;;;;;;;18.62;78.27;99885.25;4207947;28;20242;-70
2023/09/13 01:41:46;;;;;;;40.00;24.97;;;;;;;18.53;78.36;99889.31;4216550;28;22253;-73
2023/09/13 01:44:14;;;;;;;41.40;25.37;;;;;;;18.52;78.67;99885.69;4222336;28;20247;-72
2023/09/13 01:46:43;;;;;;;37.77;24.40;;;;;;;18.42;78.92;99888.06;4203948;28;20249;-71
2023/09/13 01:49:13;;;;;;;39.73;24.53;;;;;;;18.45;79.27;99875.81;4204480;28;20305;-71
2023/09/13 01:51:41;;;;;;;39.77;25.27;;;;;;;18.36;79.51;99881.53;4215895;28;20300;-70
2023/09/13 01:54:07;;;;;;;36.33;23.83;;;;;;;18.36;79.66;99887.00;4214495;28;20236;-73
2023/09/13 01:56:34;;;;;;;33.87;23.77;;;;;;;18.27;80.00;99880.03;4211662;28;20460;-72
2023/09/13 01:59:00;;;;;;;36.47;24.40;;;;;;;18.23;80.27;99880.69;4214986;28;20240;-71
2023/09/13 02:01:27;;;;;;;45.47;27.00;;;;;;;18.17;80.66;99887.84;4216068;28;20245;-70
2023/09/13 02:03:54;;;;;;;41.57;27.03;;;;;;;18.13;80.81;99876.47;4220533;28;20517;-73
2023/09/13 02:06:21;;;;;;;32.47;23.33;;;;;;;18.17;80.70;99890.56;4219305;28;20597;-71
2023/09/13 02:08:48;;;;;;;43.63;27.77;;;;;;;18.12;81.11;99887.63;4223636;28;20237;-71
2023/09/13 02:11:14;;;;;;;44.77;26.07;;;;;;;18.17;80.87;99880.47;4213133;28;20733;-71
2023/09/13 02:13:41;;;;;;;44.40;27.80;;;;;;;18.37;79.62;99882.34;4210096;28;22217;-72
2023/09/13 02:16:08;;;;;;;43.70;26.77;;;;;;;18.51;78.84;99878.53;4217410;28;20242;-71
2023/09/13 02:18:35;;;;;;;40.20;26.00;;;;;;;18.43;79.25;99883.41;4218393;28;20306;-71
2023/09/13 02:21:04;;;;;;;37.27;25.33;;;;;;;18.35;79.26;99879.84;4205293;28;20240;-72
2023/09/13 02:23:31;;;;;;;42.83;26.33;;;;;;;18.58;78.12;99880.44;4206216;28;21956;-70
2023/09/13 02:25:57;;;;;;;39.17;24.67;;;;;;;18.42;78.72;99889.94;4215783;28;21064;-71
2023/09/13 02:28:24;;;;;;;40.50;26.00;;;;;;;18.31;79.00;99880.47;4211404;28;20796;-72
2023/09/13 02:30:50;;;;;;;39.03;25.90;;;;;;;18.20;79.50;99882.78;4226458;28;20284;-71
2023/09/13 02:33:17;;;;;;;39.00;26.37;;;;;;;18.15;79.61;99879.00;4218181;28;20671;-70
2023/09/13 02:35:46;;;;;;;36.60;25.57;;;;;;;18.09;79.80;99885.34;4210577;28;20369;-72
2023/09/13 02:38:13;;;;;;;46.00;27.43;;;;;;;17.97;80.34;99883.22;4210843;28;25778;-71
2023/09/13 02:40:40;;;;;;;35.73;25.03;;;;;;;17.98;80.37;99884.91;4229663;28;20326;-72
2023/09/13 02:43:06;;;;;;;38.67;26.67;;;;;;;17.91;80.70;99886.75;4219984;28;20233;-72
2023/09/13 02:45:33;;;;;;;41.37;26.13;;;;;;;17.92;80.68;99884.84;4213075;28;20687;-70
2023/09/13 02:48:00;;;;;;;38.50;25.67;;;;;;;17.83;81.08;99885.06;4221951;28;21373;-72
2023/09/13 02:50:27;;;;;;;37.00;25.20;;;;;;;17.87;81.06;99877.25;4212424;28;20248;-72
2023/09/13 02:52:53;;;;;;;41.47;27.43;;;;;;;17.94;80.82;99880.84;4208600;28;20236;-74
2023/09/13 02:55:19;;;;;;;39.20;26.13;;;;;;;17.82;81.08;99886.13;4208340;28;20244;-72
2023/09/13 02:57:47;;;;;;;38.00;24.37;;;;;;;17.78;81.55;99881.28;4219228;28;20244;-71
2023/09/13 03:00:14;;;;;;;38.80;25.97;;;;;;;17.71;81.82;99889.47;4215469;28;20376;-70
2023/09/13 03:02:41;;;;;;;44.57;29.43;;;;;;;17.72;81.66;99883.78;4226761;28;25069;-72
2023/09/13 03:05:08;;;;;;;39.83;26.27;;;;;;;17.67;81.68;99889.03;4217550;28;20349;-71
2023/09/13 03:07:34;;;;;;;41.33;27.00;;;;;;;17.71;81.69;99887.56;4214332;28;20284;-72
2023/09/13 03:10:01;;;;;;;40.00;27.10;;;;;;;17.69;81.51;99881.47;4214693;28;20236;-71
2023/09/13 03:12:28;;;;;;;49.77;29.53;;;;;;;17.81;81.47;99878.97;4220165;28;20236;-70
2023/09/13 03:14:56;;;;;;;40.13;26.00;;;;;;;17.82;81.24;99882.53;4216240;28;20237;-72
2023/09/13 03:17:22;;;;;;;42.20;27.17;;;;;;;17.71;81.47;99879.34;4212320;28;25518;-72
2023/09/13 03:19:49;;;;;;;41.27;26.03;;;;;;;17.63;81.70;99874.09;4208003;28;22440;-70
2023/09/13 03:22:15;;;;;;;37.80;26.17;;;;;;;17.58;82.15;99887.53;4209779;28;20245;-70
2023/09/13 03:24:42;;;;;;;41.17;27.70;;;;;;;17.53;82.31;99885.41;4218357;28;20243;-71
2023/09/13 03:27:09;;;;;;;39.73;26.93;;;;;;;17.52;82.35;99880.16;4205289;28;20240;-72
2023/09/13 03:29:36;;;;;;;41.60;27.00;;;;;;;17.55;82.44;99885.25;4210504;28;20638;-72
2023/09/13 03:32:05;;;;;;;40.87;27.17;;;;;;;17.54;82.87;99880.81;4218984;28;24081;-71
2023/09/13 03:34:32;;;;;;;45.37;29.40;;;;;;;17.49;83.10;99875.94;4211601;28;22721;-70
2023/09/13 03:36:59;;;;;;;41.63;28.07;;;;;;;17.46;82.94;99870.88;4208390;28;23972;-71
2023/09/13 03:39:28;;;;;;;39.23;26.00;;;;;;;17.45;82.98;99866.44;4225748;28;20450;-73
2023/09/13 03:41:57;;;;;;;42.20;28.07;;;;;;;17.36;83.32;99860.34;4209934;28;25441;-73
2023/09/13 03:44:25;;;;;;;48.83;29.13;;;;;;;17.30;83.76;99868.50;4206926;28;21299;-71
2023/09/13 03:46:52;;;;;;;41.30;27.90;;;;;;;17.26;83.72;99866.22;4217863;28;20758;-70
2023/09/13 03:49:19;;;;;;;44.60;28.80;;;;;;;17.33;83.37;99852.56;4233388;28;20237;-70
2023/09/13 03:51:46;;;;;;;38.83;26.73;;;;;;;17.32;83.53;99867.28;4207635;28;21177;-69
2023/09/13 03:54:13;;;;;;;40.30;26.60;;;;;;;17.32;83.79;99860.97;4211013;28;22273;-71
2023/09/13 03:56:40;;;;;;;46.83;29.17;;;;;;;17.44;83.30;99862.06;4217943;28;20295;-72
2023/09/13 03:59:06;;;;;;;46.20;29.67;;;;;;;17.42;83.63;99866.88;4211824;28;20243;-70
2023/09/13 04:01:33;;;;;;;42.70;30.10;;;;;;;17.39;83.60;99867.28;4215626;28;20248;-72
2023/09/13 04:03:59;;;;;;;43.37;29.60;;;;;;;17.40;83.69;99871.72;4232824;28;21304;-69
2023/09/13 04:06:26;;;;;;;48.40;30.13;;;;;;;17.56;83.76;99868.59;4223226;28;20324;-66
2023/09/13 04:08:54;;;;;;;46.90;29.50;;;;;;;17.49;83.42;99862.28;4239881;28;20408;-67
2023/09/13 04:11:21;;;;;;;45.23;28.57;;;;;;;17.47;83.47;99861.63;4231054;28;21724;-66
2023/09/13 04:13:47;;;;;;;46.13;30.77;;;;;;;17.78;82.36;99876.63;4239490;28;20233;-69
2023/09/13 04:16:16;;;;;;;44.60;29.80;;;;;;;17.69;82.41;99865.06;4217540;28;20236;-67
2023/09/13 04:18:43;;;;;;;43.50;29.37;;;;;;;17.63;82.80;99881.44;4216659;28;20236;-70
2023/09/13 04:21:10;;;;;;;50.67;31.10;;;;;;;17.68;82.77;99873.44;4232039;28;20420;-69
2023/09/13 04:23:37;;;;;;;43.50;29.73;;;;;;;17.73;82.51;99884.63;4281022;28;22831;-66
2023/09/13 04:26:03;;;;;;;49.83;31.07;;;;;;;17.87;82.04;99874.53;4220750;28;20495;-67
2023/09/13 04:28:32;;;;;;;48.37;31.07;;;;;;;17.85;81.87;99872.00;4211776;28;20237;-69
2023/09/13 04:30:59;;;;;;;49.63;30.17;;;;;;;17.79;82.30;99869.28;4223995;28;20256;-71
2023/09/13 04:33:52;;;;;;;47.90;29.07;;;;;;;17.73;82.71;99871.78;4215539;28;20240;-70
2023/09/13 04:36:19;;;;;;;49.23;29.20;;;;;;;17.75;82.47;99863.34;4216277;28;20784;-72
2023/09/13 04:38:47;;;;;;;42.37;28.67;;;;;;;17.76;82.43;99865.03;4208889;28;20237;-69
2023/09/13 04:41:15;;;;;;;43.90;28.10;;;;;;;17.82;82.29;99858.75;4229760;28;20240;-68
2023/09/13 04:43:42;;;;;;;57.97;30.20;;;;;;;17.95;81.57;99865.28;4213110;28;21150;-69
2023/09/13 04:46:09;;;;;;;41.23;28.00;;;;;;;18.11;80.68;99855.81;4212173;28;20291;-70
2023/09/13 04:48:36;;;;;;;46.60;29.40;;;;;;;18.09;80.53;99847.00;4212837;28;22385;-67
2023/09/13 04:51:04;;;;;;;52.87;28.20;;;;;;;18.15;80.60;99859.84;4212488;28;20721;-68
2023/09/13 04:53:33;;;;;;;46.13;27.63;;;;;;;18.17;80.65;99855.81;4215588;28;20248;-68
2023/09/13 04:56:00;;;;;;;46.17;27.80;;;;;;;18.23;80.31;99858.75;4212493;28;20236;-72
2023/09/13 04:58:29;;;;;;;50.07;29.40;;;;;;;18.26;80.26;99859.19;4209476;28;21724;-69
2023/09/13 05:00:58;;;;;;;39.77;26.57;;;;;;;18.33;79.95;99862.75;4217151;28;20245;-68
2023/09/13 05:03:25;;;;;;;48.77;31.03;;;;;;;18.37;79.70;99861.28;4228594;28;20573;-68
2023/09/13 05:05:52;;;;;;;51.53;30.27;;;;;;;18.39;79.63;99860.25;4208557;28;20592;-73
2023/09/13 05:08:19;;;;;;;47.30;28.00;;;;;;;18.49;79.45;99857.88;4209670;28;20235;-66
2023/09/13 05:10:46;;;;;;;51.43;27.03;;;;;;;18.74;77.65;99851.72;4222649;28;20232;-68
2023/09/13 05:13:13;;;;;;;45.87;28.20;;;;;;;18.83;76.89;99856.75;4228162;28;22327;-66
2023/09/13 05:15:45;;;;;;;40.97;25.63;;;;;;;18.80;77.35;99861.81;4224646;28;20243;-67
2023/09/13 05:18:12;;;;;;;42.90;27.27;;;;;;;18.81;77.53;99858.84;4209051;28;20303;-69
2023/09/13 05:20:39;;;;;;;45.57;27.73;;;;;;;18.87;77.58;99870.84;4212089;28;20275;-68
2023/09/13 05:23:05;;;;;;;44.90;25.97;;;;;;;18.98;76.88;99870.22;4205900;28;22517;-69
2023/09/13 05:25:33;;;;;;;46.33;27.90;;;;;;;19.05;75.62;99867.44;4230726;28;20389;-68
2023/09/13 05:28:00;;;;;;;51.80;28.37;;;;;;;19.23;74.56;99874.13;4215749;28;20402;-69
2023/09/13 05:30:32;;;;;;;47.47;28.13;;;;;;;19.31;73.89;99863.72;4226813;28;25779;-71
2023/09/13 05:32:58;;;;;;;43.47;26.37;;;;;;;19.39;73.89;99876.38;4221220;28;20232;-67
2023/09/13 05:35:25;;;;;;;43.47;25.83;;;;;;;19.55;72.00;99868.69;4267521;28;21677;-66
2023/09/13 05:37:52;;;;;;;40.67;24.60;;;;;;;19.60;72.25;99877.09;4237350;28;23746;-70
2023/09/13 05:40:18;;;;;;;41.17;23.20;;;;;;;19.82;70.97;99863.00;4255378;28;21765;-68
2023/09/13 05:42:45;;;;;;;44.83;24.27;;;;;;;19.85;71.06;99868.09;4270597;28;22253;-66
2023/09/13 05:45:12;;;;;;;42.13;23.70;;;;;;;19.86;71.55;99867.03;4230632;28;20274;-69
2023/09/13 05:47:38;;;;;;;40.43;24.97;;;;;;;20.02;70.24;99868.38;4240641;28;20266;-68
2023/09/13 05:50:06;;;;;;;50.23;23.90;;;;;;;20.11;69.75;99867.88;4260415;28;20237;-68
2023/09/13 05:52:33;;;;;;;44.00;24.50;;;;;;;20.07;69.87;99866.66;4260183;28;20248;-66
2023/09/13 05:55:00;;;;;;;39.80;23.90;;;;;;;20.29;68.57;99871.75;4340693;28;20542;-64
2023/09/13 05:57:28;;;;;;;39.67;23.30;;;;;;;20.31;68.95;99872.38;4356361;28;20827;-66
2023/09/13 05:59:54;;;;;;;35.97;21.90;;;;;;;20.43;68.90;99858.72;4222345;28;20420;-67
2023/09/13 06:02:21;;;;;;;39.83;23.87;;;;;;;20.53;68.58;99858.19;4248349;28;20252;-65
2023/09/13 06:04:48;;;;;;;45.67;22.67;;;;;;;20.71;68.05;99865.59;4219032;28;20359;-70
2023/09/13 06:07:15;;;;;;;40.77;21.07;;;;;;;20.86;67.19;99865.25;4218766;28;20391;-64
2023/09/13 06:09:42;;;;;;;48.13;22.43;;;;;;;21.04;66.05;99868.00;4261884;28;20236;-67
2023/09/13 06:12:09;;;;;;;45.53;21.77;;;;;;;21.02;66.73;99867.38;4236762;28;20483;-66
2023/09/13 06:14:36;;;;;;;47.53;21.60;;;;;;;21.07;66.32;99861.19;4332376;28;20255;-70
2023/09/13 06:17:03;;;;;;;32.67;20.70;;;;;;;21.28;66.14;99861.75;4342152;28;20245;-68
2023/09/13 06:19:30;;;;;;;41.90;21.30;;;;;;;21.46;65.41;99864.50;4324394;28;20312;-68
2023/09/13 06:21:57;;;;;;;44.40;20.70;;;;;;;21.49;65.17;99871.44;4253024;28;21131;-67
2023/09/13 06:24:24;;;;;;;47.57;22.53;;;;;;;21.63;65.17;99872.94;4264574;28;20237;-69
2023/09/13 06:26:52;;;;;;;41.47;18.87;;;;;;;21.90;62.08;99872.56;4266610;28;20261;-66
2023/09/13 06:29:19;;;;;;;35.30;18.90;;;;;;;22.03;61.93;99865.97;4249854;28;20241;-71
2023/09/13 06:31:48;;;;;;;36.40;18.77;;;;;;;22.06;61.90;99876.53;4200119;28;20232;-69
2023/09/13 06:34:31;;;;;;;31.30;17.60;;;;;;;22.20;61.70;99879.91;4261915;28;20408;-66
2023/09/13 06:36:58;;;;;;;37.33;18.00;;;;;;;22.32;61.53;99878.00;4220214;28;20653;-68
2023/09/13 06:39:26;;;;;;;30.13;18.33;;;;;;;22.36;61.54;99883.88;4269976;28;20304;-67
2023/09/13 06:41:53;;;;;;;33.13;17.23;;;;;;;22.55;60.45;99873.59;4216239;28;20361;-67
2023/09/13 06:44:21;;;;;;;28.93;18.03;;;;;;;22.73;59.41;99874.53;4214775;28;21232;-67
2023/09/13 06:47:08;;;;;;;30.23;17.07;;;;;;;22.79;59.59;99882.66;4219067;28;20784;-69
2023/09/13 06:49:35;;;;;;;37.57;17.70;;;;;;;22.74;59.80;99877.06;4209805;28;20386;-67
2023/09/13 06:52:04;;;;;;;31.60;18.77;;;;;;;22.91;59.67;99879.06;4217014;28;21042;-68
2023/09/13 06:54:34;;;;;;;37.43;18.43;;;;;;;23.00;59.61;99883.09;4222840;28;20228;-69
2023/09/13 06:57:08;;;;;;;29.23;17.23;;;;;;;23.16;58.40;99867.72;4246814;28;20810;-67
2023/09/13 06:59:39;;;;;;;29.03;17.07;;;;;;;23.43;58.05;99880.97;4258580;28;20961;-69
2023/09/13 07:02:21;;;;;;;33.47;17.60;;;;;;;23.53;58.61;99883.09;4229168;28;20248;-72
2023/09/13 07:04:58;;;;;;;28.63;16.70;;;;;;;24.02;56.21;99882.59;4241535;28;20817;-71
2023/09/13 07:07:27;;;;;;;25.60;15.33;;;;;;;25.37;53.82;99885.38;4280266;28;20248;-71
2023/09/13 07:09:54;;;;;;;28.80;15.43;;;;;;;27.83;46.83;99871.47;4254449;28;20230;-72
2023/09/13 07:12:22;;;;;;;26.85;13.63;;;;;;;30.27;41.48;99877.84;4303941;28;20455;-75
2023/09/13 07:14:54;;;;;;;30.63;13.45;;;;;;;32.27;36.71;99880.38;4263842;28;22515;-74
2023/09/13 07:17:21;;;;;;;35.00;13.35;;;;;;;33.41;34.71;99874.25;4289302;28;20376;-74
2023/09/13 07:19:49;;;;;;;22.90;13.30;;;;;;;34.56;31.88;99881.56;4276136;28;20242;-75
2023/09/13 07:22:16;;;;;;;20.90;12.30;;;;;;;35.76;30.71;99888.25;4280010;28;20665;-75
2023/09/13 07:24:43;;;;;;;21.92;13.10;;;;;;;35.37;30.22;99880.41;4253343;28;21085;-76
2023/09/13 07:27:10;;;;;;;24.23;12.88;;;;;;;35.99;29.69;99872.00;4270612;28;20244;-74
2023/09/13 07:29:37;;;;;;;23.08;11.93;;;;;;;37.84;27.33;99880.53;4286257;28;22266;-72
2023/09/13 07:32:04;;;;;;;37.80;14.35;;;;;;;37.85;26.71;99882.16;4285265;28;20243;-77
2023/09/13 07:34:31;;;;;;;24.40;12.30;;;;;;;37.85;27.24;99880.16;4218597;28;20340;-75
2023/09/13 07:36:58;;;;;;;32.78;13.38;;;;;;;38.21;26.50;99889.13;4241453;28;20237;-70
2023/09/13 07:39:25;;;;;;;26.42;12.85;;;;;;;37.23;27.38;99887.41;4313832;28;21654;-53
2023/09/13 08:44:45;;;;;;;28.65;11.07;;;;;;;32.35;34.41;99893.69;4343140;28;20572;-70
2023/09/13 08:47:12;;;;;;;29.20;11.32;;;;;;;32.54;34.19;99891.63;4291864;28;20236;-67
2023/09/13 08:49:40;;;;;;;23.92;10.93;;;;;;;31.44;35.51;99887.22;4315582;28;20391;-69
2023/09/13 08:52:08;;;;;;;27.13;10.73;;;;;;;31.86;35.22;99893.88;4235717;28;20241;-69
2023/09/13 08:54:36;;;;;;;18.73;9.65;;;;;;;32.23;34.56;99878.19;4278439;28;21909;-69
2023/09/13 08:57:24;;;;;;;28.17;10.45;;;;;;;31.85;35.17;99886.63;4266811;28;20249;-48
2023/09/13 08:59:51;;;;;;;27.58;11.07;;;;;;;32.26;34.72;99879.53;4297317;28;20244;-56
2023/09/13 21:22:54;;;;;;;21.00;14.10;;;;;;;19.11;96.54;99860.25;4259544;28;20530;-71
2023/09/13 21:25:21;;;;;;;23.83;14.57;;;;;;;19.07;96.84;99853.53;4242957;28;20637;-68
2023/09/13 21:27:48;;;;;;;21.20;14.00;;;;;;;19.02;97.13;99859.66;4249339;28;21430;-71
2023/09/13 21:30:15;;;;;;;20.03;13.97;;;;;;;19.02;97.42;99848.69;4234280;28;21317;-69
2023/09/13 21:32:42;;;;;;;20.77;14.00;;;;;;;19.00;97.30;99853.56;4254151;28;20236;-72
2023/09/13 21:35:08;;;;;;;22.97;14.07;;;;;;;18.92;97.94;99848.31;4242941;28;20232;-73
2023/09/13 21:37:35;;;;;;;25.73;14.90;;;;;;;18.90;98.20;99848.50;4232003;28;20238;-72
2023/09/13 21:40:02;;;;;;;25.80;15.07;;;;;;;18.95;97.85;99853.38;4228389;28;20382;-71
2023/09/13 21:42:29;;;;;;;18.87;14.43;;;;;;;18.90;97.75;99851.25;4247306;28;20333;-72
2023/09/13 21:44:56;;;;;;;23.70;15.17;;;;;;;18.81;98.63;99858.00;4240683;28;22088;-70
2023/09/13 21:47:24;;;;;;;20.97;14.93;;;;;;;18.91;98.34;99861.16;4223849;28;20650;-73
2023/09/13 21:49:51;;;;;;;20.77;14.57;;;;;;;18.78;98.36;99864.78;4242770;28;20235;-71
2023/09/13 21:52:17;;;;;;;21.17;14.73;;;;;;;18.74;99.08;99873.66;4237957;28;20238;-73
2023/09/13 21:54:48;;;;;;;25.10;16.00;;;;;;;18.66;99.53;99875.56;4230022;28;20226;-71
2023/09/13 21:57:21;;;;;;;23.77;16.20;;;;;;;18.70;99.43;99870.50;4230957;28;26049;-73
2023/09/13 21:59:48;;;;;;;23.73;15.27;;;;;;;18.67;99.06;99863.53;4234759;28;21158;-71
2023/09/13 22:02:14;;;;;;;21.17;15.63;;;;;;;18.72;98.81;99873.00;4267699;28;20669;-71
2023/09/13 22:04:41;;;;;;;23.07;15.40;;;;;;;18.67;99.07;99873.66;4252837;28;20366;-70
2023/09/13 22:07:08;;;;;;;25.30;15.53;;;;;;;18.60;98.93;99868.19;4232067;28;24164;-72
2023/09/13 22:09:35;;;;;;;22.80;15.23;;;;;;;18.66;98.92;99871.97;4233926;28;20268;-73
2023/09/13 22:12:04;;;;;;;21.57;15.00;;;;;;;18.69;98.44;99872.38;4226809;28;20869;-72
2023/09/13 22:14:31;;;;;;;24.20;15.40;;;;;;;18.58;98.86;99866.75;4233625;28;20230;-71
2023/09/13 22:16:57;;;;;;;23.27;15.33;;;;;;;18.55;99.22;99867.16;4238219;28;20683;-72
2023/09/13 22:19:24;;;;;;;24.23;15.47;;;;;;;18.51;99.17;99869.47;4228666;28;20523;-72
2023/09/13 22:21:52;;;;;;;24.17;14.87;;;;;;;18.50;99.29;99876.00;4227213;28;20238;-72
2023/09/13 22:24:19;;;;;;;20.67;15.50;;;;;;;18.48;99.46;99878.97;4234504;28;20286;-71
2023/09/13 22:26:46;;;;;;;27.80;16.67;;;;;;;18.50;99.08;99881.50;4219517;28;20239;-70
2023/09/13 22:29:13;;;;;;;23.53;16.63;;;;;;;18.49;99.41;99877.06;4198001;28;20322;-71
2023/09/13 22:31:40;;;;;;;29.50;17.60;;;;;;;18.37;99.87;99874.13;4230205;28;20247;-71
2023/09/13 22:34:06;;;;;;;22.77;17.13;;;;;;;18.40;100.00;99884.69;4205599;28;22395;-70
2023/09/13 22:36:33;;;;;;;24.53;16.13;;;;;;;18.36;100.00;99886.13;4201882;28;20360;-72
2023/09/13 22:39:03;;;;;;;23.37;16.53;;;;;;;18.32;100.00;99893.13;4203672;28;21801;-71
2023/09/13 22:41:36;;;;;;;25.43;18.10;;;;;;;18.32;100.00;99895.84;4212118;28;20309;-70
2023/09/13 22:44:04;;;;;;;29.83;18.70;;;;;;;18.32;100.00;99882.16;4212203;28;20236;-71
2023/09/13 22:46:31;;;;;;;26.13;18.87;;;;;;;18.28;100.00;99876.25;4207825;28;20710;-72
2023/09/13 22:48:57;;;;;;;27.73;18.93;;;;;;;18.21;100.00;99872.69;4215620;28;21115;-70
2023/09/13 22:51:24;;;;;;;34.03;19.90;;;;;;;18.24;100.00;99877.72;4220232;28;20233;-72
2023/09/13 22:53:51;;;;;;;32.10;21.20;;;;;;;18.24;100.00;99882.38;4217236;28;21860;-71
2023/09/13 22:56:18;;;;;;;34.13;22.13;;;;;;;18.17;100.00;99882.34;4211120;28;20268;-71
2023/09/13 22:58:44;;;;;;;32.97;21.30;;;;;;;18.20;100.00;99879.22;4215013;28;20228;-72
2023/09/13 23:01:11;;;;;;;31.93;22.47;;;;;;;18.21;100.00;99880.91;4201737;28;20239;-73
2023/09/13 23:03:39;;;;;;;32.30;22.93;;;;;;;18.19;100.00;99883.00;4215470;28;20235;-73
2023/09/13 23:06:11;;;;;;;33.50;22.63;;;;;;;18.11;100.00;99889.53;4208838;28;21760;-72
2023/09/13 23:08:38;;;;;;;36.07;24.40;;;;;;;18.09;100.00;99894.38;4216721;28;20255;-71
2023/09/13 23:11:06;;;;;;;40.60;25.13;;;;;;;18.10;100.00;99893.34;4204929;28;22290;-70
2023/09/13 23:13:33;;;;;;;44.83;26.20;;;;;;;18.06;100.00;99897.53;4226633;28;22944;-72
2023/09/13 23:16:05;;;;;;;41.33;26.47;;;;;;;18.09;100.00;99901.78;4225841;28;20235;-72
2023/09/13 23:18:34;;;;;;;41.53;26.83;;;;;;;18.09;100.00;99902.59;4199345;28;20236;-71
2023/09/13 23:21:02;;;;;;;38.30;26.23;;;;;;;18.04;100.00;99905.97;4219274;28;20247;-72
2023/09/13 23:23:29;;;;;;;38.77;27.43;;;;;;;18.05;100.00;99902.19;4205985;28;20347;-71
2023/09/13 23:26:00;;;;;;;41.23;27.03;;;;;;;18.02;100.00;99909.97;4212048;28;20259;-71
2023/09/13 23:28:27;;;;;;;45.93;28.13;;;;;;;17.97;100.00;99909.78;4220150;28;22992;-71
2023/09/13 23:31:11;;;;;;;47.20;28.70;;;;;;;17.92;100.00;99904.88;4216141;28;20256;-73
2023/09/13 23:33:40;;;;;;;47.30;28.17;;;;;;;17.97;100.00;99905.13;4236084;28;20277;-72
2023/09/13 23:36:09;;;;;;;47.40;29.23;;;;;;;17.96;100.00;99900.69;4214481;28;20935;-70
2023/09/13 23:38:40;;;;;;;48.50;29.50;;;;;;;17.94;100.00;99902.75;4214753;28;20453;-70
2023/09/13 23:41:09;;;;;;;48.07;29.27;;;;;;;17.94;100.00;99910.13;4228866;28;20235;-70
2023/09/13 23:43:37;;;;;;;45.07;29.70;;;;;;;17.92;100.00;99910.34;4203105;28;20241;-70
2023/09/13 23:46:04;;;;;;;44.13;30.03;;;;;;;17.90;100.00;99910.53;4214651;28;20256;-72
2023/09/13 23:48:32;;;;;;;49.07;29.97;;;;;;;17.84;100.00;99899.59;4204285;28;20419;-71
2023/09/13 23:50:59;;;;;;;48.67;30.83;;;;;;;17.77;100.00;99915.19;4209901;28;20232;-71
2023/09/13 23:53:26;;;;;;;50.23;30.67;;;;;;;17.75;100.00;99915.34;4214431;28;20231;-72
2023/09/13 23:55:53;;;;;;;48.77;31.67;;;;;;;17.73;100.00;99920.22;4221898;28;20331;-73
2023/09/13 23:58:19;;;;;;;45.13;29.67;;;;;;;17.79;100.00;99913.09;4208853;28;21601;-73
